sensor_id;sensor_type;location;lat;lon;timestamp;P1;durP1;ratioP1;P2;durP2;ratioP2
21657;SDS011;10990;48.174;9.782;2022-08-21T00:00:16;1.50;;;1.40;;
21657;SDS011;10990;48.174;9.782;2022-08-21T00:02:47;2.13;;;1.20;;
21657;SDS011;10990;48.174;9.782;2022-08-21T00:05:17;1.50;;;1.40;;
21657;SDS011;10990;48.174;9.782;2022-08-21T00:07:46;1.30;;;1.20;;
21657;SDS011;10990;48.174;9.782;2022-08-21T00:10:14;1.98;;;1.50;;
21657;SDS011;10990;48.174;9.782;2022-08-21T00:12:42;1.70;;;1.60;;
21657;SDS011;10990;48.174;9.782;2022-08-21T00:15:11;3.33;;;1.48;;
21657;SDS011;10990;48.174;9.782;2022-08-21T00:17:40;1.75;;;1.40;;
21657;SDS011;10990;48.174;9.782;2022-08-21T00:20:08;1.40;;;1.30;;
21657;SDS011;10990;48.174;9.782;2022-08-21T00:22:38;1.23;;;1.13;;
21657;SDS011;10990;48.174;9.782;2022-08-21T00:25:06;1.40;;;1.30;;
21657;SDS011;10990;48.174;9.782;2022-08-21T00:27:34;2.17;;;1.40;;
21657;SDS011;10990;48.174;9.782;2022-08-21T00:30:08;1.42;;;1.30;;
21657;SDS011;10990;48.174;9.782;2022-08-21T00:32:37;1.95;;;1.30;;
21657;SDS011;10990;48.174;9.782;2022-08-21T00:35:06;1.45;;;1.00;;
21657;SDS011;10990;48.174;9.782;2022-08-21T00:37:40;1.20;;;1.10;;
21657;SDS011;10990;48.174;9.782;2022-08-21T00:40:09;1.45;;;1.00;;
21657;SDS011;10990;48.174;9.782;2022-08-21T00:42:39;1.65;;;1.40;;
21657;SDS011;10990;48.174;9.782;2022-08-21T00:45:07;4.32;;;1.50;;
21657;SDS011;10990;48.174;9.782;2022-08-21T00:47:35;1.23;;;1.20;;
21657;SDS011;10990;48.174;9.782;2022-08-21T00:50:03;0.93;;;0.93;;
21657;SDS011;10990;48.174;9.782;2022-08-21T00:52:32;1.17;;;1.08;;
21657;SDS011;10990;48.174;9.782;2022-08-21T00:55:03;1.00;;;1.00;;
21657;SDS011;10990;48.174;9.782;2022-08-21T00:57:36;1.90;;;1.48;;
21657;SDS011;10990;48.174;9.782;2022-08-21T01:00:10;1.20;;;1.10;;
21657;SDS011;10990;48.174;9.782;2022-08-21T01:02:45;1.15;;;1.10;;
21657;SDS011;10990;48.174;9.782;2022-08-21T01:05:12;1.30;;;1.10;;
21657;SDS011;10990;48.174;9.782;2022-08-21T01:07:40;1.15;;;1.10;;
21657;SDS011;10990;48.174;9.782;2022-08-21T01:10:11;1.58;;;1.00;;
21657;SDS011;10990;48.174;9.782;2022-08-21T01:12:39;1.25;;;1.15;;
21657;SDS011;10990;48.174;9.782;2022-08-21T01:15:08;1.30;;;1.20;;
21657;SDS011;10990;48.174;9.782;2022-08-21T01:17:37;1.95;;;1.20;;
21657;SDS011;10990;48.174;9.782;2022-08-21T01:20:05;4.90;;;1.40;;
21657;SDS011;10990;48.174;9.782;2022-08-21T01:22:37;3.08;;;1.40;;
21657;SDS011;10990;48.174;9.782;2022-08-21T01:25:06;2.25;;;1.20;;
21657;SDS011;10990;48.174;9.782;2022-08-21T01:27:35;1.30;;;1.20;;
21657;SDS011;10990;48.174;9.782;2022-08-21T01:30:04;1.55;;;1.33;;
21657;SDS011;10990;48.174;9.782;2022-08-21T01:32:39;1.58;;;1.30;;
21657;SDS011;10990;48.174;9.782;2022-08-21T01:35:06;1.60;;;1.50;;
21657;SDS011;10990;48.174;9.782;2022-08-21T01:37:34;1.60;;;1.50;;
21657;SDS011;10990;48.174;9.782;2022-08-21T01:40:05;1.83;;;1.73;;
21657;SDS011;10990;48.174;9.782;2022-08-21T01:42:33;1.27;;;1.17;;
21657;SDS011;10990;48.174;9.782;2022-08-21T01:45:00;1.60;;;1.50;;
21657;SDS011;10990;48.174;9.782;2022-08-21T01:47:29;1.50;;;1.40;;
21657;SDS011;10990;48.174;9.782;2022-08-21T01:49:56;2.15;;;1.35;;
21657;SDS011;10990;48.174;9.782;2022-08-21T01:52:24;1.58;;;1.48;;
21657;SDS011;10990;48.174;9.782;2022-08-21T01:54:51;1.40;;;1.30;;
21657;SDS011;10990;48.174;9.782;2022-08-21T01:57:20;2.33;;;1.60;;
21657;SDS011;10990;48.174;9.782;2022-08-21T01:59:47;1.50;;;1.17;;
21657;SDS011;10990;48.174;9.782;2022-08-21T02:02:15;1.50;;;1.40;;
21657;SDS011;10990;48.174;9.782;2022-08-21T02:04:43;1.48;;;1.38;;
21657;SDS011;10990;48.174;9.782;2022-08-21T02:07:11;1.83;;;1.50;;
21657;SDS011;10990;48.174;9.782;2022-08-21T02:09:38;1.65;;;1.52;;
21657;SDS011;10990;48.174;9.782;2022-08-21T02:12:08;1.58;;;1.48;;
21657;SDS011;10990;48.174;9.782;2022-08-21T02:14:36;1.63;;;1.52;;
21657;SDS011;10990;48.174;9.782;2022-08-21T02:17:04;1.60;;;1.50;;
21657;SDS011;10990;48.174;9.782;2022-08-21T02:19:31;1.67;;;1.58;;
21657;SDS011;10990;48.174;9.782;2022-08-21T02:21:59;1.67;;;1.40;;
21657;SDS011;10990;48.174;9.782;2022-08-21T02:24:26;1.80;;;1.70;;
21657;SDS011;10990;48.174;9.782;2022-08-21T02:26:54;1.52;;;1.40;;
21657;SDS011;10990;48.174;9.782;2022-08-21T02:29:21;1.60;;;1.50;;
21657;SDS011;10990;48.174;9.782;2022-08-21T02:31:50;1.70;;;1.60;;
21657;SDS011;10990;48.174;9.782;2022-08-21T02:34:18;2.35;;;1.58;;
21657;SDS011;10990;48.174;9.782;2022-08-21T02:36:45;1.40;;;1.30;;
21657;SDS011;10990;48.174;9.782;2022-08-21T02:39:13;1.38;;;1.25;;
21657;SDS011;10990;48.174;9.782;2022-08-21T02:41:40;1.75;;;1.40;;
21657;SDS011;10990;48.174;9.782;2022-08-21T02:44:08;2.10;;;1.60;;
21657;SDS011;10990;48.174;9.782;2022-08-21T02:46:35;1.95;;;1.60;;
21657;SDS011;10990;48.174;9.782;2022-08-21T02:49:04;4.60;;;2.08;;
21657;SDS011;10990;48.174;9.782;2022-08-21T02:51:31;3.85;;;2.00;;
21657;SDS011;10990;48.174;9.782;2022-08-21T02:53:58;2.00;;;1.80;;
21657;SDS011;10990;48.174;9.782;2022-08-21T02:56:25;2.65;;;1.58;;
21657;SDS011;10990;48.174;9.782;2022-08-21T02:58:53;3.10;;;2.10;;
21657;SDS011;10990;48.174;9.782;2022-08-21T03:01:20;2.13;;;1.90;;
21657;SDS011;10990;48.174;9.782;2022-08-21T03:03:49;2.60;;;1.92;;
21657;SDS011;10990;48.174;9.782;2022-08-21T03:06:18;2.08;;;1.88;;
21657;SDS011;10990;48.174;9.782;2022-08-21T03:08:49;2.25;;;1.60;;
21657;SDS011;10990;48.174;9.782;2022-08-21T03:11:17;2.03;;;1.70;;
21657;SDS011;10990;48.174;9.782;2022-08-21T03:13:46;1.90;;;1.70;;
21657;SDS011;10990;48.174;9.782;2022-08-21T03:16:14;1.60;;;1.50;;
21657;SDS011;10990;48.174;9.782;2022-08-21T03:18:41;1.73;;;1.63;;
21657;SDS011;10990;48.174;9.782;2022-08-21T03:21:08;1.50;;;1.40;;
21657;SDS011;10990;48.174;9.782;2022-08-21T03:23:37;1.60;;;1.48;;
21657;SDS011;10990;48.174;9.782;2022-08-21T03:26:07;1.75;;;1.40;;
21657;SDS011;10990;48.174;9.782;2022-08-21T03:28:35;1.05;;;1.05;;
21657;SDS011;10990;48.174;9.782;2022-08-21T03:31:03;2.67;;;1.42;;
21657;SDS011;10990;48.174;9.782;2022-08-21T03:33:31;1.83;;;1.30;;
21657;SDS011;10990;48.174;9.782;2022-08-21T03:36:02;1.60;;;1.50;;
21657;SDS011;10990;48.174;9.782;2022-08-21T03:38:31;2.15;;;1.40;;
21657;SDS011;10990;48.174;9.782;2022-08-21T03:41:02;1.23;;;1.20;;
21657;SDS011;10990;48.174;9.782;2022-08-21T03:43:31;1.23;;;1.13;;
21657;SDS011;10990;48.174;9.782;2022-08-21T03:45:58;1.40;;;1.30;;
21657;SDS011;10990;48.174;9.782;2022-08-21T03:48:28;1.38;;;1.27;;
21657;SDS011;10990;48.174;9.782;2022-08-21T03:50:56;1.00;;;1.00;;
21657;SDS011;10990;48.174;9.782;2022-08-21T03:53:24;1.40;;;0.95;;
21657;SDS011;10990;48.174;9.782;2022-08-21T03:55:52;0.70;;;0.70;;
21657;SDS011;10990;48.174;9.782;2022-08-21T03:58:22;1.73;;;0.88;;
21657;SDS011;10990;48.174;9.782;2022-08-21T04:00:53;4.13;;;1.10;;
21657;SDS011;10990;48.174;9.782;2022-08-21T04:03:23;1.65;;;1.08;;
21657;SDS011;10990;48.174;9.782;2022-08-21T04:05:50;2.35;;;1.10;;
21657;SDS011;10990;48.174;9.782;2022-08-21T04:08:19;1.00;;;1.00;;
21657;SDS011;10990;48.174;9.782;2022-08-21T04:10:46;1.63;;;0.90;;
21657;SDS011;10990;48.174;9.782;2022-08-21T04:13:16;1.95;;;1.02;;
21657;SDS011;10990;48.174;9.782;2022-08-21T04:15:44;1.08;;;1.08;;
21657;SDS011;10990;48.174;9.782;2022-08-21T04:18:13;1.08;;;1.00;;
21657;SDS011;10990;48.174;9.782;2022-08-21T04:20:40;1.40;;;1.30;;
21657;SDS011;10990;48.174;9.782;2022-08-21T04:23:10;1.00;;;1.00;;
21657;SDS011;10990;48.174;9.782;2022-08-21T04:25:37;1.10;;;1.00;;
21657;SDS011;10990;48.174;9.782;2022-08-21T04:28:04;1.00;;;1.00;;
21657;SDS011;10990;48.174;9.782;2022-08-21T04:30:32;0.90;;;0.90;;
21657;SDS011;10990;48.174;9.782;2022-08-21T04:33:00;1.88;;;1.10;;
21657;SDS011;10990;48.174;9.782;2022-08-21T04:35:30;1.10;;;1.10;;
21657;SDS011;10990;48.174;9.782;2022-08-21T04:37:59;3.53;;;1.40;;
21657;SDS011;10990;48.174;9.782;2022-08-21T04:40:27;0.90;;;0.90;;
21657;SDS011;10990;48.174;9.782;2022-08-21T04:42:55;1.60;;;1.15;;
21657;SDS011;10990;48.174;9.782;2022-08-21T04:45:26;1.20;;;1.10;;
21657;SDS011;10990;48.174;9.782;2022-08-21T04:47:55;1.20;;;1.15;;
21657;SDS011;10990;48.174;9.782;2022-08-21T04:50:26;1.23;;;1.20;;
21657;SDS011;10990;48.174;9.782;2022-08-21T04:53:03;0.95;;;0.95;;
21657;SDS011;10990;48.174;9.782;2022-08-21T04:55:32;1.30;;;1.00;;
21657;SDS011;10990;48.174;9.782;2022-08-21T04:58:00;1.33;;;0.93;;
21657;SDS011;10990;48.174;9.782;2022-08-21T05:00:28;0.90;;;0.90;;
21657;SDS011;10990;48.174;9.782;2022-08-21T05:02:56;2.65;;;1.00;;
21657;SDS011;10990;48.174;9.782;2022-08-21T05:05:28;1.73;;;1.20;;
21657;SDS011;10990;48.174;9.782;2022-08-21T05:07:56;1.10;;;1.00;;
21657;SDS011;10990;48.174;9.782;2022-08-21T05:10:26;2.42;;;1.10;;
21657;SDS011;10990;48.174;9.782;2022-08-21T05:12:54;1.23;;;1.13;;
21657;SDS011;10990;48.174;9.782;2022-08-21T05:15:22;1.00;;;1.00;;
21657;SDS011;10990;48.174;9.782;2022-08-21T05:17:49;1.15;;;0.90;;
21657;SDS011;10990;48.174;9.782;2022-08-21T05:20:18;0.90;;;0.90;;
21657;SDS011;10990;48.174;9.782;2022-08-21T05:22:47;1.30;;;1.20;;
21657;SDS011;10990;48.174;9.782;2022-08-21T05:25:15;0.90;;;0.90;;
21657;SDS011;10990;48.174;9.782;2022-08-21T05:27:42;1.00;;;1.00;;
21657;SDS011;10990;48.174;9.782;2022-08-21T05:30:10;0.82;;;0.82;;
21657;SDS011;10990;48.174;9.782;2022-08-21T05:32:38;1.10;;;1.10;;
21657;SDS011;10990;48.174;9.782;2022-08-21T05:35:06;1.33;;;1.23;;
21657;SDS011;10990;48.174;9.782;2022-08-21T05:37:34;1.30;;;1.20;;
21657;SDS011;10990;48.174;9.782;2022-08-21T05:40:04;1.40;;;1.30;;
21657;SDS011;10990;48.174;9.782;2022-08-21T05:42:33;1.25;;;1.00;;
21657;SDS011;10990;48.174;9.782;2022-08-21T05:45:00;1.00;;;1.00;;
21657;SDS011;10990;48.174;9.782;2022-08-21T05:47:27;1.17;;;1.10;;
21657;SDS011;10990;48.174;9.782;2022-08-21T05:49:55;1.30;;;1.00;;
21657;SDS011;10990;48.174;9.782;2022-08-21T05:52:22;1.40;;;1.10;;
21657;SDS011;10990;48.174;9.782;2022-08-21T05:54:49;1.25;;;1.15;;
21657;SDS011;10990;48.174;9.782;2022-08-21T05:57:20;0.80;;;0.80;;
21657;SDS011;10990;48.174;9.782;2022-08-21T05:59:50;0.98;;;0.90;;
21657;SDS011;10990;48.174;9.782;2022-08-21T06:02:18;0.98;;;0.98;;
21657;SDS011;10990;48.174;9.782;2022-08-21T06:04:47;0.55;;;0.55;;
21657;SDS011;10990;48.174;9.782;2022-08-21T06:07:15;0.90;;;0.90;;
21657;SDS011;10990;48.174;9.782;2022-08-21T06:09:42;0.80;;;0.80;;
21657;SDS011;10990;48.174;9.782;2022-08-21T06:12:10;0.70;;;0.70;;
21657;SDS011;10990;48.174;9.782;2022-08-21T06:14:40;0.60;;;0.60;;
21657;SDS011;10990;48.174;9.782;2022-08-21T06:17:08;1.88;;;0.73;;
21657;SDS011;10990;48.174;9.782;2022-08-21T06:19:38;0.80;;;0.80;;
21657;SDS011;10990;48.174;9.782;2022-08-21T06:22:05;0.90;;;0.90;;
21657;SDS011;10990;48.174;9.782;2022-08-21T06:24:33;1.00;;;0.95;;
21657;SDS011;10990;48.174;9.782;2022-08-21T06:27:03;1.08;;;1.08;;
21657;SDS011;10990;48.174;9.782;2022-08-21T06:29:31;0.80;;;0.80;;
21657;SDS011;10990;48.174;9.782;2022-08-21T06:32:01;0.82;;;0.82;;
21657;SDS011;10990;48.174;9.782;2022-08-21T06:34:29;0.80;;;0.80;;
21657;SDS011;10990;48.174;9.782;2022-08-21T06:36:56;0.82;;;0.82;;
21657;SDS011;10990;48.174;9.782;2022-08-21T06:39:23;1.25;;;0.90;;
21657;SDS011;10990;48.174;9.782;2022-08-21T06:41:51;0.70;;;0.70;;
21657;SDS011;10990;48.174;9.782;2022-08-21T06:44:22;0.80;;;0.80;;
21657;SDS011;10990;48.174;9.782;2022-08-21T06:46:50;0.70;;;0.70;;
21657;SDS011;10990;48.174;9.782;2022-08-21T06:49:18;0.68;;;0.68;;
21657;SDS011;10990;48.174;9.782;2022-08-21T06:51:46;0.90;;;0.90;;
21657;SDS011;10990;48.174;9.782;2022-08-21T06:54:13;0.90;;;0.90;;
21657;SDS011;10990;48.174;9.782;2022-08-21T06:56:41;0.90;;;0.90;;
21657;SDS011;10990;48.174;9.782;2022-08-21T06:59:08;0.93;;;0.80;;
21657;SDS011;10990;48.174;9.782;2022-08-21T07:01:35;1.08;;;0.98;;
21657;SDS011;10990;48.174;9.782;2022-08-21T07:04:04;12.30;;;0.90;;
21657;SDS011;10990;48.174;9.782;2022-08-21T07:06:32;0.77;;;0.70;;
21657;SDS011;10990;48.174;9.782;2022-08-21T07:09:00;0.70;;;0.70;;
21657;SDS011;10990;48.174;9.782;2022-08-21T07:11:28;1.00;;;0.95;;
21657;SDS011;10990;48.174;9.782;2022-08-21T07:13:55;1.00;;;1.00;;
21657;SDS011;10990;48.174;9.782;2022-08-21T07:16:24;1.10;;;1.00;;
21657;SDS011;10990;48.174;9.782;2022-08-21T07:18:51;2.25;;;1.25;;
21657;SDS011;10990;48.174;9.782;2022-08-21T07:21:19;1.08;;;0.98;;
21657;SDS011;10990;48.174;9.782;2022-08-21T07:23:49;1.38;;;1.27;;
21657;SDS011;10990;48.174;9.782;2022-08-21T07:26:18;1.77;;;1.00;;
21657;SDS011;10990;48.174;9.782;2022-08-21T07:28:47;1.48;;;1.30;;
21657;SDS011;10990;48.174;9.782;2022-08-21T07:31:22;1.10;;;1.00;;
21657;SDS011;10990;48.174;9.782;2022-08-21T07:33:50;1.05;;;1.05;;
21657;SDS011;10990;48.174;9.782;2022-08-21T07:36:18;1.25;;;1.15;;
21657;SDS011;10990;48.174;9.782;2022-08-21T07:38:48;2.17;;;0.95;;
21657;SDS011;10990;48.174;9.782;2022-08-21T07:41:17;2.30;;;1.10;;
21657;SDS011;10990;48.174;9.782;2022-08-21T07:43:46;1.40;;;1.15;;
21657;SDS011;10990;48.174;9.782;2022-08-21T07:46:14;2.05;;;1.20;;
21657;SDS011;10990;48.174;9.782;2022-08-21T07:48:42;1.70;;;1.27;;
21657;SDS011;10990;48.174;9.782;2022-08-21T07:51:10;3.00;;;1.60;;
21657;SDS011;10990;48.174;9.782;2022-08-21T07:53:39;1.90;;;1.50;;
21657;SDS011;10990;48.174;9.782;2022-08-21T07:56:09;1.70;;;1.40;;
21657;SDS011;10990;48.174;9.782;2022-08-21T07:58:37;1.70;;;1.60;;
21657;SDS011;10990;48.174;9.782;2022-08-21T08:01:05;2.83;;;1.83;;
21657;SDS011;10990;48.174;9.782;2022-08-21T08:03:33;1.52;;;1.40;;
21657;SDS011;10990;48.174;9.782;2022-08-21T08:06:01;1.98;;;1.30;;
21657;SDS011;10990;48.174;9.782;2022-08-21T08:08:30;1.58;;;1.48;;
21657;SDS011;10990;48.174;9.782;2022-08-21T08:10:57;2.50;;;1.80;;
21657;SDS011;10990;48.174;9.782;2022-08-21T08:13:27;1.70;;;1.60;;
21657;SDS011;10990;48.174;9.782;2022-08-21T08:15:54;2.55;;;1.90;;
21657;SDS011;10990;48.174;9.782;2022-08-21T08:18:21;1.42;;;1.33;;
21657;SDS011;10990;48.174;9.782;2022-08-21T08:20:49;1.90;;;1.60;;
21657;SDS011;10990;48.174;9.782;2022-08-21T08:23:16;1.95;;;1.80;;
21657;SDS011;10990;48.174;9.782;2022-08-21T08:25:43;2.88;;;1.70;;
21657;SDS011;10990;48.174;9.782;2022-08-21T08:28:11;2.38;;;1.80;;
21657;SDS011;10990;48.174;9.782;2022-08-21T08:30:39;2.45;;;1.70;;
21657;SDS011;10990;48.174;9.782;2022-08-21T08:33:08;1.95;;;1.75;;
21657;SDS011;10990;48.174;9.782;2022-08-21T08:35:35;3.88;;;2.10;;
21657;SDS011;10990;48.174;9.782;2022-08-21T08:38:03;2.70;;;1.80;;
21657;SDS011;10990;48.174;9.782;2022-08-21T08:40:32;2.42;;;2.10;;
21657;SDS011;10990;48.174;9.782;2022-08-21T08:43:05;3.55;;;2.08;;
21657;SDS011;10990;48.174;9.782;2022-08-21T08:45:34;2.63;;;1.90;;
21657;SDS011;10990;48.174;9.782;2022-08-21T08:48:08;2.35;;;2.00;;
21657;SDS011;10990;48.174;9.782;2022-08-21T08:50:44;3.60;;;2.00;;
21657;SDS011;10990;48.174;9.782;2022-08-21T08:53:15;2.42;;;2.13;;
21657;SDS011;10990;48.174;9.782;2022-08-21T08:55:47;2.08;;;1.95;;
21657;SDS011;10990;48.174;9.782;2022-08-21T08:58:20;2.20;;;2.00;;
21657;SDS011;10990;48.174;9.782;2022-08-21T09:00:51;2.20;;;2.00;;
21657;SDS011;10990;48.174;9.782;2022-08-21T09:03:23;3.20;;;2.05;;
21657;SDS011;10990;48.174;9.782;2022-08-21T09:06:03;2.85;;;2.17;;
21657;SDS011;10990;48.174;9.782;2022-08-21T09:08:43;2.58;;;2.03;;
21657;SDS011;10990;48.174;9.782;2022-08-21T09:11:21;2.53;;;2.00;;
21657;SDS011;10990;48.174;9.782;2022-08-21T09:13:56;2.03;;;1.80;;
21657;SDS011;10990;48.174;9.782;2022-08-21T09:16:33;2.95;;;2.10;;
21657;SDS011;10990;48.174;9.782;2022-08-21T09:19:14;3.53;;;2.42;;
21657;SDS011;10990;48.174;9.782;2022-08-21T09:21:58;5.68;;;2.65;;
21657;SDS011;10990;48.174;9.782;2022-08-21T09:24:37;6.57;;;2.92;;
21657;SDS011;10990;48.174;9.782;2022-08-21T09:27:13;3.88;;;2.80;;
21657;SDS011;10990;48.174;9.782;2022-08-21T09:29:43;4.43;;;2.90;;
21657;SDS011;10990;48.174;9.782;2022-08-21T09:32:14;4.25;;;3.03;;
21657;SDS011;10990;48.174;9.782;2022-08-21T09:34:55;4.32;;;3.00;;
21657;SDS011;10990;48.174;9.782;2022-08-21T09:37:25;5.55;;;3.17;;
21657;SDS011;10990;48.174;9.782;2022-08-21T09:39:55;4.57;;;2.80;;
21657;SDS011;10990;48.174;9.782;2022-08-21T09:42:25;5.38;;;3.20;;
21657;SDS011;10990;48.174;9.782;2022-08-21T09:45:11;5.65;;;3.25;;
21657;SDS011;10990;48.174;9.782;2022-08-21T09:47:42;4.93;;;2.85;;
21657;SDS011;10990;48.174;9.782;2022-08-21T09:50:13;5.82;;;3.40;;
21657;SDS011;10990;48.174;9.782;2022-08-21T09:52:44;3.70;;;2.75;;
21657;SDS011;10990;48.174;9.782;2022-08-21T09:55:15;4.70;;;3.20;;
21657;SDS011;10990;48.174;9.782;2022-08-21T09:58:00;4.70;;;2.72;;
21657;SDS011;10990;48.174;9.782;2022-08-21T10:00:29;3.28;;;2.63;;
21657;SDS011;10990;48.174;9.782;2022-08-21T10:03:10;4.00;;;2.80;;
21657;SDS011;10990;48.174;9.782;2022-08-21T10:05:51;4.30;;;2.80;;
21657;SDS011;10990;48.174;9.782;2022-08-21T10:08:22;4.65;;;2.45;;
21657;SDS011;10990;48.174;9.782;2022-08-21T10:10:53;5.03;;;2.65;;
21657;SDS011;10990;48.174;9.782;2022-08-21T10:13:26;5.22;;;2.90;;
21657;SDS011;10990;48.174;9.782;2022-08-21T10:16:12;5.85;;;3.13;;
21657;SDS011;10990;48.174;9.782;2022-08-21T10:18:53;4.60;;;3.08;;
21657;SDS011;10990;48.174;9.782;2022-08-21T10:21:34;5.47;;;2.75;;
21657;SDS011;10990;48.174;9.782;2022-08-21T10:24:08;4.82;;;2.75;;
21657;SDS011;10990;48.174;9.782;2022-08-21T10:26:47;4.78;;;2.75;;
21657;SDS011;10990;48.174;9.782;2022-08-21T10:29:38;5.55;;;2.95;;
21657;SDS011;10990;48.174;9.782;2022-08-21T10:32:14;4.15;;;2.88;;
21657;SDS011;10990;48.174;9.782;2022-08-21T10:34:57;6.18;;;2.75;;
21657;SDS011;10990;48.174;9.782;2022-08-21T10:37:35;5.20;;;2.70;;
21657;SDS011;10990;48.174;9.782;2022-08-21T10:40:15;5.15;;;2.78;;
21657;SDS011;10990;48.174;9.782;2022-08-21T10:42:54;4.13;;;2.20;;
21657;SDS011;10990;48.174;9.782;2022-08-21T10:45:33;6.30;;;2.60;;
21657;SDS011;10990;48.174;9.782;2022-08-21T10:48:12;2.90;;;2.50;;
21657;SDS011;10990;48.174;9.782;2022-08-21T10:50:48;5.55;;;2.85;;
21657;SDS011;10990;48.174;9.782;2022-08-21T10:53:28;3.40;;;2.72;;
21657;SDS011;10990;48.174;9.782;2022-08-21T10:56:13;2.70;;;2.28;;
21657;SDS011;10990;48.174;9.782;2022-08-21T10:58:56;3.85;;;2.35;;
21657;SDS011;10990;48.174;9.782;2022-08-21T11:01:38;5.30;;;2.50;;
21657;SDS011;10990;48.174;9.782;2022-08-21T11:04:16;3.53;;;2.38;;
21657;SDS011;10990;48.174;9.782;2022-08-21T11:06:51;3.35;;;2.10;;
21657;SDS011;10990;48.174;9.782;2022-08-21T11:09:26;3.20;;;2.30;;
21657;SDS011;10990;48.174;9.782;2022-08-21T11:11:56;3.22;;;2.33;;
21657;SDS011;10990;48.174;9.782;2022-08-21T11:14:30;4.00;;;2.63;;
21657;SDS011;10990;48.174;9.782;2022-08-21T11:17:07;3.42;;;2.50;;
21657;SDS011;10990;48.174;9.782;2022-08-21T11:19:39;4.50;;;2.85;;
21657;SDS011;10990;48.174;9.782;2022-08-21T11:22:13;3.13;;;2.08;;
21657;SDS011;10990;48.174;9.782;2022-08-21T11:24:49;2.72;;;1.85;;
21657;SDS011;10990;48.174;9.782;2022-08-21T11:27:23;3.05;;;2.20;;
21657;SDS011;10990;48.174;9.782;2022-08-21T11:29:55;3.03;;;1.98;;
21657;SDS011;10990;48.174;9.782;2022-08-21T11:32:28;2.20;;;2.00;;
21657;SDS011;10990;48.174;9.782;2022-08-21T11:35:11;3.55;;;2.30;;
21657;SDS011;10990;48.174;9.782;2022-08-21T11:37:50;3.88;;;2.10;;
21657;SDS011;10990;48.174;9.782;2022-08-21T11:40:31;3.80;;;2.17;;
21657;SDS011;10990;48.174;9.782;2022-08-21T11:43:08;3.40;;;2.40;;
21657;SDS011;10990;48.174;9.782;2022-08-21T11:45:41;2.20;;;2.00;;
21657;SDS011;10990;48.174;9.782;2022-08-21T11:48:19;3.75;;;2.50;;
21657;SDS011;10990;48.174;9.782;2022-08-21T11:51:01;4.45;;;2.40;;
21657;SDS011;10990;48.174;9.782;2022-08-21T11:53:36;3.63;;;2.50;;
21657;SDS011;10990;48.174;9.782;2022-08-21T11:56:11;4.82;;;2.47;;
21657;SDS011;10990;48.174;9.782;2022-08-21T11:58:45;3.55;;;2.40;;
21657;SDS011;10990;48.174;9.782;2022-08-21T12:01:17;2.53;;;1.95;;
21657;SDS011;10990;48.174;9.782;2022-08-21T12:03:51;3.30;;;2.50;;
21657;SDS011;10990;48.174;9.782;2022-08-21T12:06:28;4.25;;;2.30;;
21657;SDS011;10990;48.174;9.782;2022-08-21T12:08:59;3.72;;;2.40;;
21657;SDS011;10990;48.174;9.782;2022-08-21T12:11:31;3.30;;;2.13;;
21657;SDS011;10990;48.174;9.782;2022-08-21T12:13:59;4.93;;;2.55;;
21657;SDS011;10990;48.174;9.782;2022-08-21T12:16:39;5.10;;;2.60;;
21657;SDS011;10990;48.174;9.782;2022-08-21T12:19:09;3.72;;;2.53;;
21657;SDS011;10990;48.174;9.782;2022-08-21T12:21:48;3.88;;;2.20;;
21657;SDS011;10990;48.174;9.782;2022-08-21T12:24:18;4.15;;;2.05;;
21657;SDS011;10990;48.174;9.782;2022-08-21T12:27:01;3.10;;;2.10;;
21657;SDS011;10990;48.174;9.782;2022-08-21T12:29:47;4.65;;;2.60;;
21657;SDS011;10990;48.174;9.782;2022-08-21T12:32:22;3.15;;;2.50;;
21657;SDS011;10990;48.174;9.782;2022-08-21T12:34:52;4.10;;;2.30;;
21657;SDS011;10990;48.174;9.782;2022-08-21T12:37:37;3.75;;;2.22;;
21657;SDS011;10990;48.174;9.782;2022-08-21T12:40:10;2.58;;;2.10;;
21657;SDS011;10990;48.174;9.782;2022-08-21T12:42:43;2.30;;;1.90;;
21657;SDS011;10990;48.174;9.782;2022-08-21T12:45:17;3.40;;;2.13;;
21657;SDS011;10990;48.174;9.782;2022-08-21T12:47:48;3.05;;;2.22;;
21657;SDS011;10990;48.174;9.782;2022-08-21T12:50:20;5.65;;;2.45;;
21657;SDS011;10990;48.174;9.782;2022-08-21T12:52:57;2.72;;;2.20;;
21657;SDS011;10990;48.174;9.782;2022-08-21T12:55:31;2.80;;;2.25;;
21657;SDS011;10990;48.174;9.782;2022-08-21T12:58:04;3.45;;;2.50;;
21657;SDS011;10990;48.174;9.782;2022-08-21T13:00:34;3.53;;;2.42;;
21657;SDS011;10990;48.174;9.782;2022-08-21T13:03:03;2.45;;;2.22;;
21657;SDS011;10990;48.174;9.782;2022-08-21T13:05:33;3.72;;;2.40;;
21657;SDS011;10990;48.174;9.782;2022-08-21T13:08:05;2.47;;;1.90;;
21657;SDS011;10990;48.174;9.782;2022-08-21T13:10:46;3.17;;;1.98;;
21657;SDS011;10990;48.174;9.782;2022-08-21T13:13:29;2.28;;;2.03;;
21657;SDS011;10990;48.174;9.782;2022-08-21T13:16:03;3.67;;;2.10;;
21657;SDS011;10990;48.174;9.782;2022-08-21T13:18:51;4.85;;;2.53;;
21657;SDS011;10990;48.174;9.782;2022-08-21T13:21:42;4.57;;;2.20;;
21657;SDS011;10990;48.174;9.782;2022-08-21T13:24:16;3.17;;;2.13;;
21657;SDS011;10990;48.174;9.782;2022-08-21T13:26:49;4.78;;;2.40;;
21657;SDS011;10990;48.174;9.782;2022-08-21T13:29:22;2.55;;;2.08;;
21657;SDS011;10990;48.174;9.782;2022-08-21T13:31:58;4.22;;;2.25;;
21657;SDS011;10990;48.174;9.782;2022-08-21T13:34:29;3.67;;;2.30;;
21657;SDS011;10990;48.174;9.782;2022-08-21T13:37:00;2.70;;;2.05;;
21657;SDS011;10990;48.174;9.782;2022-08-21T13:39:31;3.10;;;2.30;;
21657;SDS011;10990;48.174;9.782;2022-08-21T13:42:01;2.90;;;2.00;;
21657;SDS011;10990;48.174;9.782;2022-08-21T13:44:34;3.45;;;2.20;;
21657;SDS011;10990;48.174;9.782;2022-08-21T13:47:06;2.60;;;1.95;;
21657;SDS011;10990;48.174;9.782;2022-08-21T13:49:37;4.80;;;2.33;;
21657;SDS011;10990;48.174;9.782;2022-08-21T13:52:13;3.72;;;1.92;;
21657;SDS011;10990;48.174;9.782;2022-08-21T13:54:42;3.03;;;2.20;;
21657;SDS011;10990;48.174;9.782;2022-08-21T13:57:15;4.30;;;2.20;;
21657;SDS011;10990;48.174;9.782;2022-08-21T13:59:47;2.80;;;2.10;;
21657;SDS011;10990;48.174;9.782;2022-08-21T14:02:16;3.90;;;2.10;;
21657;SDS011;10990;48.174;9.782;2022-08-21T14:04:49;3.65;;;2.00;;
21657;SDS011;10990;48.174;9.782;2022-08-21T14:07:24;3.70;;;2.03;;
21657;SDS011;10990;48.174;9.782;2022-08-21T14:09:56;4.38;;;2.28;;
21657;SDS011;10990;48.174;9.782;2022-08-21T14:12:29;4.00;;;2.28;;
21657;SDS011;10990;48.174;9.782;2022-08-21T14:15:05;2.85;;;2.00;;
21657;SDS011;10990;48.174;9.782;2022-08-21T14:17:35;2.97;;;1.90;;
21657;SDS011;10990;48.174;9.782;2022-08-21T14:20:08;2.80;;;1.90;;
21657;SDS011;10990;48.174;9.782;2022-08-21T14:22:38;2.22;;;1.90;;
21657;SDS011;10990;48.174;9.782;2022-08-21T14:25:09;2.47;;;2.03;;
21657;SDS011;10990;48.174;9.782;2022-08-21T14:27:43;3.10;;;2.35;;
21657;SDS011;10990;48.174;9.782;2022-08-21T14:30:16;2.92;;;1.95;;
21657;SDS011;10990;48.174;9.782;2022-08-21T14:32:45;4.10;;;1.98;;
21657;SDS011;10990;48.174;9.782;2022-08-21T14:35:12;3.75;;;2.10;;
21657;SDS011;10990;48.174;9.782;2022-08-21T14:37:43;2.92;;;2.10;;
21657;SDS011;10990;48.174;9.782;2022-08-21T14:40:11;3.00;;;2.03;;
21657;SDS011;10990;48.174;9.782;2022-08-21T14:42:39;2.20;;;1.80;;
21657;SDS011;10990;48.174;9.782;2022-08-21T14:45:09;2.92;;;2.10;;
21657;SDS011;10990;48.174;9.782;2022-08-21T14:47:42;2.53;;;2.15;;
21657;SDS011;10990;48.174;9.782;2022-08-21T14:50:10;3.10;;;2.08;;
21657;SDS011;10990;48.174;9.782;2022-08-21T14:52:39;3.72;;;2.20;;
21657;SDS011;10990;48.174;9.782;2022-08-21T14:55:08;3.15;;;1.85;;
21657;SDS011;10990;48.174;9.782;2022-08-21T14:57:39;2.00;;;1.77;;
21657;SDS011;10990;48.174;9.782;2022-08-21T15:00:09;2.08;;;1.70;;
21657;SDS011;10990;48.174;9.782;2022-08-21T15:02:37;3.05;;;2.20;;
21657;SDS011;10990;48.174;9.782;2022-08-21T15:05:06;2.10;;;1.90;;
21657;SDS011;10990;48.174;9.782;2022-08-21T15:07:35;2.72;;;1.80;;
21657;SDS011;10990;48.174;9.782;2022-08-21T15:10:03;5.40;;;2.00;;